Time;durP1;ratioP1;P1;durP2;ratioP2;P2;SDS_P1;SDS_P2;PMS_P1;PMS_P2;Temp;Humidity;BMP_temperature;BMP_pressure;BME280_temperature;BME280_humidity;BME280_pressure;Samples;Min_cycle;Max_cycle;Signal;HPM_P1;HPM_P2
2022/04/04 02:12:15;;;;;;;4.93;3.37;;;3.40;99.90;;;;;;5485908;23;20459;-55
2022/04/04 02:14:41;;;;;;;5.60;3.87;;;3.40;99.90;;;;;;5017982;28;20453;-65
2022/04/04 02:17:08;;;;;;;5.10;3.10;;;3.40;99.90;;;;;;5017337;28;20478;-61
2022/04/04 02:19:37;;;;;;;7.93;2.73;;;3.40;99.90;;;;;;5017579;28;20473;-62
2022/04/04 02:22:04;;;;;;;5.17;3.40;;;3.40;99.90;;;;;;5017507;28;20462;-59
2022/04/04 02:24:33;;;;;;;4.23;2.70;;;3.40;99.90;;;;;;5017747;28;20475;-60
2022/04/04 02:27:00;;;;;;;4.70;2.70;;;3.30;99.90;;;;;;5017229;28;20450;-53
2022/04/04 02:29:28;;;;;;;4.23;3.40;;;3.30;99.90;;;;;;5018068;28;20768;-54
2022/04/04 02:31:54;;;;;;;5.33;2.83;;;3.30;99.90;;;;;;5017135;28;20446;-62
2022/04/04 02:34:21;;;;;;;6.07;4.37;;;3.30;99.90;;;;;;5016611;28;20454;-60
2022/04/04 02:36:48;;;;;;;6.13;3.80;;;3.30;99.90;;;;;;5017503;28;20419;-57
2022/04/04 02:39:14;;;;;;;9.03;5.37;;;3.30;99.90;;;;;;5017140;28;20492;-59
2022/04/04 02:41:43;;;;;;;5.43;3.57;;;3.40;99.90;;;;;;5017668;28;20461;-57
2022/04/04 02:44:12;;;;;;;4.60;3.07;;;3.40;99.90;;;;;;5017473;28;20490;-50
2022/04/04 02:46:39;;;;;;;6.60;3.53;;;3.40;99.90;;;;;;5016626;28;20505;-59
2022/04/04 02:49:08;;;;;;;4.30;2.93;;;3.40;99.90;;;;;;5016639;28;20426;-58
2022/04/04 02:51:35;;;;;;;9.37;3.70;;;3.40;99.90;;;;;;5016330;28;20451;-59
2022/04/04 02:54:02;;;;;;;4.60;3.20;;;3.40;99.90;;;;;;5016754;28;20456;-56
2022/04/04 02:56:30;;;;;;;6.83;3.93;;;3.40;99.90;;;;;;5016948;28;20458;-53
2022/04/04 02:58:59;;;;;;;4.80;3.07;;;3.40;99.90;;;;;;5017116;28;20469;-60
2022/04/04 03:01:25;;;;;;;4.63;3.50;;;3.30;99.90;;;;;;5016270;28;20469;-57
2022/04/04 03:03:54;;;;;;;7.40;3.93;;;3.30;99.90;;;;;;5016683;28;20477;-56
2022/04/04 03:06:20;;;;;;;3.13;2.70;;;3.30;99.90;;;;;;5016901;28;20456;-60
2022/04/04 03:08:47;;;;;;;4.30;2.80;;;3.30;99.90;;;;;;5016535;28;20500;-59
2022/04/04 03:11:15;;;;;;;3.23;2.47;;;3.30;99.90;;;;;;5016257;28;20540;-57
2022/04/04 03:13:42;;;;;;;4.00;3.37;;;3.30;99.90;;;;;;5016229;28;20449;-59
2022/04/04 03:16:08;;;;;;;4.30;3.43;;;3.30;99.90;;;;;;5016459;28;20446;-63
2022/04/04 03:18:36;;;;;;;6.07;3.67;;;3.20;99.90;;;;;;5016091;28;20490;-60
2022/04/04 03:21:06;;;;;;;10.73;4.73;;;3.20;99.90;;;;;;5016159;28;20446;-57
2022/04/04 03:23:34;;;;;;;5.43;3.40;;;3.20;99.90;;;;;;5015879;28;20453;-54
2022/04/04 03:26:02;;;;;;;4.13;3.30;;;3.20;99.90;;;;;;5016160;28;20481;-56
2022/04/04 03:28:31;;;;;;;4.60;3.27;;;3.20;99.90;;;;;;5016188;28;20446;-53
2022/04/04 03:31:00;;;;;;;6.50;3.60;;;3.10;99.90;;;;;;5016063;28;20442;-62
2022/04/04 03:33:26;;;;;;;5.97;3.60;;;3.20;99.90;;;;;;5016561;28;20477;-65
2022/04/04 03:35:53;;;;;;;4.83;3.57;;;3.20;99.90;;;;;;5016458;28;20458;-62
2022/04/04 03:38:21;;;;;;;4.90;3.87;;;3.10;99.90;;;;;;5016013;28;20485;-61
2022/04/04 03:40:48;;;;;;;8.03;4.23;;;3.10;99.90;;;;;;5016178;28;20497;-60
2022/04/04 03:43:14;;;;;;;4.43;3.67;;;3.10;99.90;;;;;;5016521;28;20565;-59
2022/04/04 03:45:41;;;;;;;8.07;4.87;;;3.00;99.90;;;;;;5016528;28;20473;-58
2022/04/04 03:48:09;;;;;;;6.07;3.73;;;3.00;99.90;;;;;;5015982;28;20465;-59
2022/04/04 03:50:38;;;;;;;6.70;4.00;;;3.10;99.90;;;;;;5015405;28;20458;-58
2022/04/04 03:53:06;;;;;;;10.23;4.10;;;3.10;99.90;;;;;;5015275;28;20473;-58
2022/04/04 03:55:39;;;;;;;4.43;3.50;;;3.10;99.90;;;;;;5015709;28;20442;-59
2022/04/04 03:58:08;;;;;;;5.23;3.57;;;3.10;99.90;;;;;;5015800;28;20525;-60
2022/04/04 04:00:35;;;;;;;8.73;4.80;;;3.10;99.90;;;;;;5016175;28;20450;-59
2022/04/04 04:03:01;;;;;;;5.63;3.67;;;3.10;99.90;;;;;;5016156;28;20475;-56
2022/04/04 04:05:28;;;;;;;6.70;3.60;;;3.10;99.90;;;;;;5016644;28;20442;-57
2022/04/04 04:07:55;;;;;;;5.30;4.50;;;3.00;99.90;;;;;;5016106;28;20761;-60
2022/04/04 04:10:23;;;;;;;6.07;4.10;;;3.10;99.90;;;;;;5016026;28;20440;-58
2022/04/04 04:12:51;;;;;;;3.90;3.20;;;3.00;99.90;;;;;;5015851;28;20442;-61
2022/04/04 04:15:23;;;;;;;5.17;3.37;;;3.00;99.90;;;;;;5016050;28;20417;-58
2022/04/04 04:17:52;;;;;;;5.40;3.97;;;3.00;99.90;;;;;;5016463;28;20465;-58
2022/04/04 04:20:23;;;;;;;6.07;3.40;;;3.00;99.90;;;;;;5015917;28;20489;-56
2022/04/04 04:22:52;;;;;;;4.47;3.80;;;3.00;99.90;;;;;;5015843;28;20563;-59
2022/04/04 04:25:19;;;;;;;5.37;3.77;;;3.00;99.90;;;;;;5016130;28;20478;-64
2022/04/04 04:27:48;;;;;;;4.50;3.30;;;3.00;99.90;;;;;;5016141;28;20453;-63
2022/04/04 04:30:20;;;;;;;3.77;2.73;;;3.00;99.90;;;;;;5016304;28;20473;-58
2022/04/04 04:32:52;;;;;;;5.43;4.03;;;2.90;99.90;;;;;;5015351;28;20427;-60
2022/04/04 04:35:20;;;;;;;5.70;4.00;;;3.00;99.90;;;;;;5017582;28;20422;-56
2022/04/04 04:37:47;;;;;;;7.13;4.33;;;3.00;99.90;;;;;;5019255;28;20513;-56
2022/04/04 04:40:15;;;;;;;5.17;3.20;;;3.00;99.90;;;;;;5018711;28;20466;-58
2022/04/04 04:42:45;;;;;;;6.70;4.70;;;3.00;99.90;;;;;;5018707;28;20461;-60
2022/04/04 04:45:14;;;;;;;4.73;3.40;;;3.00;99.90;;;;;;5019040;28;20434;-61
2022/04/04 04:47:42;;;;;;;9.87;5.40;;;3.00;99.90;;;;;;5018947;28;20465;-57
2022/04/04 04:50:10;;;;;;;13.47;4.00;;;3.00;99.90;;;;;;5019222;28;20441;-60
2022/04/04 04:52:37;;;;;;;7.03;4.50;;;3.00;99.90;;;;;;5018732;28;20806;-58
2022/04/04 04:55:05;;;;;;;5.97;4.47;;;3.00;99.90;;;;;;5019175;28;20438;-60
2022/04/04 04:57:35;;;;;;;5.10;4.00;;;3.00;99.90;;;;;;5019621;28;20422;-60
2022/04/04 05:00:04;;;;;;;4.60;3.97;;;2.90;99.90;;;;;;5018885;28;20481;-63
2022/04/04 05:02:31;;;;;;;4.83;3.77;;;2.90;99.90;;;;;;5019165;28;20442;-61
2022/04/04 05:04:59;;;;;;;4.43;4.03;;;2.90;99.90;;;;;;5019215;28;20474;-60
2022/04/04 05:07:29;;;;;;;18.23;4.47;;;3.00;99.90;;;;;;5018998;28;20481;-57
2022/04/04 05:09:55;;;;;;;4.40;3.73;;;3.00;99.90;;;;;;5018371;28;20454;-62
2022/04/04 05:12:22;;;;;;;7.00;4.43;;;3.00;99.90;;;;;;5018467;28;20462;-60
2022/04/04 05:14:49;;;;;;;5.80;4.03;;;2.90;99.90;;;;;;5018596;28;20480;-61
2022/04/04 05:17:16;;;;;;;4.30;3.83;;;2.90;99.90;;;;;;5018625;28;20430;-58
2022/04/04 05:19:44;;;;;;;5.77;3.90;;;2.90;99.90;;;;;;5018899;28;20517;-56
2022/04/04 05:22:14;;;;;;;5.30;3.97;;;2.90;99.90;;;;;;5019128;28;20449;-60
2022/04/04 05:24:40;;;;;;;4.43;3.90;;;2.90;99.90;;;;;;5019769;28;20450;-53
2022/04/04 05:27:07;;;;;;;3.73;3.43;;;2.90;99.90;;;;;;5019163;28;20464;-45
2022/04/04 05:29:34;;;;;;;5.57;4.17;;;2.90;99.90;;;;;;5020316;28;20465;-37
2022/04/04 05:32:04;;;;;;;4.33;3.10;;;3.00;99.90;;;;;;5021496;28;20446;-37
2022/04/04 05:34:30;;;;;;;4.83;3.57;;;3.00;99.90;;;;;;5021469;28;20442;-40
2022/04/04 05:36:59;;;;;;;5.10;4.00;;;3.00;99.90;;;;;;5021323;28;20418;-36
2022/04/04 05:39:30;;;;;;;9.40;4.00;;;3.10;99.90;;;;;;5021337;28;20496;-40
2022/04/04 05:41:57;;;;;;;4.30;3.90;;;3.50;99.90;;;;;;5021319;28;20482;-40
2022/04/04 05:44:25;;;;;;;6.53;4.57;;;3.20;99.90;;;;;;5021194;28;20438;-40
2022/04/04 05:46:54;;;;;;;5.23;4.07;;;3.30;99.90;;;;;;5020005;28;20423;-41
2022/04/04 05:49:20;;;;;;;5.37;4.03;;;3.30;99.90;;;;;;5021180;28;20458;-38
2022/04/04 05:51:48;;;;;;;5.47;4.73;;;3.40;99.90;;;;;;5021223;28;20437;-40
2022/04/04 05:54:15;;;;;;;7.77;4.83;;;3.40;99.90;;;;;;5021008;28;20513;-44
2022/04/04 05:56:45;;;;;;;8.73;5.10;;;3.50;99.90;;;;;;5021206;28;20449;-41
2022/04/04 05:59:14;;;;;;;7.70;3.90;;;3.50;99.90;;;;;;5021017;28;20449;-40
2022/04/04 06:01:42;;;;;;;6.53;4.70;;;3.60;99.90;;;;;;5018602;28;20455;-36
2022/04/04 06:04:08;;;;;;;6.80;4.33;;;3.70;99.90;;;;;;5011704;28;20422;-35
2022/04/04 06:06:35;;;;;;;5.73;4.33;;;3.80;99.90;;;;;;5001353;28;20419;-38
2022/04/04 06:09:07;;;;;;;5.00;4.00;;;3.90;99.90;;;;;;5016884;28;20461;-36
2022/04/04 06:11:34;;;;;;;8.93;4.97;;;3.90;99.90;;;;;;5019836;28;20450;-35
2022/04/04 06:14:03;;;;;;;4.70;3.83;;;4.00;99.90;;;;;;5020095;28;20422;-35
2022/04/04 06:16:29;;;;;;;5.60;4.20;;;4.10;99.90;;;;;;5020565;28;20454;-41
2022/04/04 06:18:56;;;;;;;8.57;5.50;;;4.20;99.90;;;;;;5014695;28;20442;-43
2022/04/04 06:21:22;;;;;;;6.97;5.87;;;4.30;99.90;;;;;;5006085;28;20458;-43
2022/04/04 06:23:49;;;;;;;8.40;5.03;;;4.40;99.90;;;;;;5007148;28;20438;-46
2022/04/04 06:26:16;;;;;;;5.73;4.43;;;4.50;99.90;;;;;;5005724;28;20803;-45
2022/04/04 06:28:43;;;;;;;9.30;5.37;;;4.60;99.90;;;;;;5005961;28;20447;-44
2022/04/04 06:31:11;;;;;;;7.53;6.43;;;4.70;99.90;;;;;;4997878;28;20446;-44
2022/04/04 06:33:39;;;;;;;7.20;5.40;;;4.80;99.90;;;;;;4993451;28;20496;-43
2022/04/04 06:36:06;;;;;;;5.73;5.13;;;4.80;99.90;;;;;;5004909;28;20609;-48
2022/04/04 06:38:33;;;;;;;6.90;4.57;;;4.80;99.90;;;;;;5014456;28;20466;-41
2022/04/04 06:40:59;;;;;;;10.93;6.87;;;5.00;99.90;;;;;;5014598;28;20486;-50
2022/04/04 06:43:26;;;;;;;7.90;5.07;;;5.00;99.90;;;;;;5014209;28;20461;-43
2022/04/04 06:45:53;;;;;;;8.60;5.20;;;5.10;99.90;;;;;;5013960;28;20418;-45
2022/04/04 06:48:22;;;;;;;11.03;6.80;;;5.10;99.90;;;;;;5013598;28;20438;-51
2022/04/04 06:50:49;;;;;;;8.87;5.80;;;5.20;99.90;;;;;;5012789;28;20493;-48
2022/04/04 06:53:15;;;;;;;9.50;7.87;;;5.20;99.90;;;;;;5012909;28;21181;-47
2022/04/04 06:55:44;;;;;;;8.50;6.20;;;5.20;99.90;;;;;;5013727;28;20466;-45
2022/04/04 06:58:11;;;;;;;16.37;6.23;;;5.30;99.90;;;;;;5013476;28;20533;-40
2022/04/04 07:00:38;;;;;;;7.50;6.67;;;5.30;99.90;;;;;;5013682;28;20490;-44
2022/04/04 07:03:07;;;;;;;13.60;6.87;;;5.30;99.90;;;;;;5012893;28;20486;-46
2022/04/04 07:05:37;;;;;;;12.17;7.00;;;5.30;99.90;;;;;;5011664;28;20522;-44
2022/04/04 07:08:04;;;;;;;10.47;7.00;;;5.50;99.90;;;;;;5011554;28;20466;-47
2022/04/04 07:10:33;;;;;;;10.13;6.57;;;5.50;99.90;;;;;;5012951;28;20441;-48
2022/04/04 07:13:00;;;;;;;9.80;6.43;;;5.60;99.90;;;;;;5011361;28;20453;-47
2022/04/04 07:15:27;;;;;;;20.13;7.63;;;5.70;99.90;;;;;;5004126;28;20883;-47
2022/04/04 07:17:54;;;;;;;8.73;6.63;;;5.80;99.90;;;;;;5003118;28;20462;-46
2022/04/04 07:20:20;;;;;;;12.03;5.33;;;5.90;99.90;;;;;;5003110;28;20952;-51
2022/04/04 07:22:48;;;;;;;9.40;6.20;;;5.90;99.90;;;;;;5003250;28;20496;-48
2022/04/04 07:25:15;;;;;;;9.50;7.00;;;6.00;99.90;;;;;;5003131;28;20784;-45
2022/04/04 07:27:44;;;;;;;10.53;7.50;;;6.00;99.90;;;;;;5003644;28;20442;-45
2022/04/04 07:30:13;;;;;;;10.20;6.80;;;5.90;99.90;;;;;;5004568;28;20639;-48
2022/04/04 07:32:41;;;;;;;14.90;6.97;;;6.00;99.90;;;;;;5004705;28;20532;-49
2022/04/04 07:35:11;;;;;;;8.23;5.93;;;6.00;99.90;;;;;;5003628;28;20461;-48
2022/04/04 07:37:38;;;;;;;9.43;6.93;;;6.10;99.90;;;;;;5003558;28;20492;-45
2022/04/04 07:40:10;;;;;;;10.23;6.27;;;6.10;99.90;;;;;;5003303;28;20485;-42
2022/04/04 07:42:37;;;;;;;10.10;7.20;;;6.10;99.90;;;;;;5002280;28;20541;-49
2022/04/04 07:45:05;;;;;;;10.47;5.90;;;6.10;99.90;;;;;;5003194;28;20461;-48
2022/04/04 07:47:32;;;;;;;10.10;6.93;;;6.10;99.90;;;;;;5003430;28;20456;-45
2022/04/04 07:49:59;;;;;;;11.50;6.70;;;6.20;99.90;;;;;;5002507;28;20474;-43
2022/04/04 07:52:27;;;;;;;9.40;6.87;;;6.30;99.90;;;;;;5002035;28;20446;-45
2022/04/04 07:54:54;;;;;;;7.27;6.30;;;6.40;99.90;;;;;;5001637;28;20477;-47
2022/04/04 07:57:22;;;;;;;10.70;9.17;;;6.50;99.90;;;;;;4995885;28;20458;-46
2022/04/04 07:59:51;;;;;;;9.63;6.27;;;6.50;99.90;;;;;;4995115;28;20497;-43
2022/04/04 08:02:18;;;;;;;9.10;6.70;;;6.60;99.90;;;;;;4994874;28;20528;-47
2022/04/04 08:04:45;;;;;;;9.90;7.40;;;6.60;99.90;;;;;;4995133;28;20446;-48
2022/04/04 08:07:12;;;;;;;9.60;7.27;;;6.70;99.90;;;;;;4994824;28;21005;-50
2022/04/04 08:09:39;;;;;;;19.73;7.90;;;6.90;99.90;;;;;;4996106;28;20951;-51
2022/04/04 08:12:06;;;;;;;9.20;6.57;;;6.90;99.90;;;;;;4999062;28;20457;-45
2022/04/04 08:14:36;;;;;;;9.03;6.53;;;6.90;99.90;;;;;;4999278;28;20739;-49
2022/04/04 08:17:03;;;;;;;9.23;6.97;;;6.90;99.90;;;;;;4999191;28;20466;-52
2022/04/04 08:19:30;;;;;;;11.33;6.40;;;7.10;99.90;;;;;;4998827;28;20918;-49
2022/04/04 08:21:57;;;;;;;7.93;5.57;;;7.10;99.90;;;;;;4999222;28;20446;-46
2022/04/04 08:24:25;;;;;;;8.67;6.87;;;7.10;99.90;;;;;;4998756;28;20529;-48
2022/04/04 08:26:52;;;;;;;6.93;6.17;;;7.20;99.90;;;;;;4998774;28;20969;-47
2022/04/04 08:29:19;;;;;;;8.47;5.90;;;7.30;99.90;;;;;;4999121;28;20473;-65
2022/04/04 08:31:47;;;;;;;9.70;6.50;;;7.30;99.90;;;;;;4999574;28;20503;-60
2022/04/04 08:34:14;;;;;;;7.77;5.57;;;7.50;99.90;;;;;;4999419;28;20528;-60
2022/04/04 08:36:41;;;;;;;6.13;4.97;;;7.60;99.90;;;;;;4999493;28;20480;-65
2022/04/04 08:39:08;;;;;;;12.70;7.30;;;7.60;99.90;;;;;;4999066;28;20450;-64
2022/04/04 08:41:36;;;;;;;11.70;7.23;;;7.70;99.90;;;;;;4998805;28;20505;-62
2022/04/04 08:44:04;;;;;;;7.80;6.50;;;7.80;99.90;;;;;;4999057;28;20446;-61
2022/04/04 08:46:33;;;;;;;11.10;8.40;;;7.90;99.90;;;;;;4998795;28;20450;-62
2022/04/04 08:49:04;;;;;;;9.97;7.30;;;8.00;99.90;;;;;;4998764;28;20485;-59
2022/04/04 08:51:31;;;;;;;13.03;6.50;;;8.00;99.90;;;;;;4998532;28;20477;-57
2022/04/04 08:53:57;;;;;;;9.63;6.40;;;8.00;99.90;;;;;;4998640;28;20485;-64
2022/04/04 08:56:27;;;;;;;11.90;5.57;;;7.90;99.90;;;;;;4998730;28;20457;-62
2022/04/04 08:58:55;;;;;;;8.43;6.23;;;8.00;99.90;;;;;;4998592;28;20445;-68
2022/04/04 09:01:22;;;;;;;17.03;9.07;;;8.30;99.90;;;;;;4998549;28;20478;-60
2022/04/04 09:03:53;;;;;;;7.30;5.40;;;8.60;99.90;;;;;;4998932;28;20461;-64
2022/04/04 09:06:21;;;;;;;4.77;3.67;;;8.70;99.90;;;;;;5000215;28;20482;-56
2022/04/04 09:08:50;;;;;;;33.77;16.93;;;8.70;99.90;;;;;;4999180;28;20820;-65
2022/04/04 09:11:18;;;;;;;12.83;6.80;;;8.70;99.90;;;;;;4998734;28;20457;-63
2022/04/04 09:13:44;;;;;;;8.43;6.80;;;8.70;99.90;;;;;;4998195;28;20933;-63
2022/04/04 09:16:11;;;;;;;8.67;5.80;;;8.70;99.90;;;;;;4997939;28;20449;-61
2022/04/04 09:18:47;;;;;;;8.57;5.87;;;8.80;99.90;;;;;;4998027;28;20474;-62
2022/04/04 09:21:31;;;;;;;7.80;4.23;;;8.80;99.90;;;;;;4997744;28;20477;-64
2022/04/04 09:24:01;;;;;;;6.83;4.83;;;8.70;99.90;;;;;;4997939;28;20469;-60
2022/04/04 09:26:33;;;;;;;9.27;6.87;;;8.60;99.90;;;;;;4998845;28;20482;-63
2022/04/04 09:29:02;;;;;;;8.53;5.27;;;8.60;99.90;;;;;;4999216;28;20922;-64
2022/04/04 09:31:29;;;;;;;11.60;7.10;;;8.70;99.90;;;;;;4998522;28;20873;-59
2022/04/04 09:34:01;;;;;;;8.40;5.33;;;8.70;99.90;;;;;;4997808;28;20473;-57
2022/04/04 09:36:30;;;;;;;7.93;4.57;;;8.80;99.90;;;;;;4997576;28;20462;-64
2022/04/04 09:39:03;;;;;;;8.20;5.40;;;9.00;99.90;;;;;;4997671;28;20454;-59
2022/04/04 09:41:31;;;;;;;7.53;5.00;;;9.10;99.90;;;;;;4997490;28;20556;-57
2022/04/04 09:44:00;;;;;;;10.57;5.83;;;9.30;99.90;;;;;;4997727;28;20799;-63
2022/04/04 09:46:32;;;;;;;8.10;5.03;;;9.50;99.90;;;;;;4997679;28;20508;-63
2022/04/04 09:49:07;;;;;;;10.67;4.93;;;9.80;99.30;;;;;;4997695;28;20493;-59
2022/04/04 09:51:44;;;;;;;10.00;6.13;;;10.10;97.30;;;;;;4997534;28;20452;-63
2022/04/04 09:54:15;;;;;;;6.37;5.37;;;10.10;96.80;;;;;;4998969;28;20473;-64
2022/04/04 09:56:43;;;;;;;10.43;6.70;;;10.40;96.30;;;;;;4998631;28;20493;-62
2022/04/04 09:59:14;;;;;;;10.43;6.27;;;10.90;95.50;;;;;;4997508;28;20458;-60
2022/04/04 10:01:43;;;;;;;9.43;6.70;;;11.30;94.00;;;;;;4997258;28;20493;-62
2022/04/04 10:04:12;;;;;;;5.73;4.47;;;11.50;92.70;;;;;;4997284;28;20990;-64
2022/04/04 10:06:39;;;;;;;7.03;4.80;;;11.50;91.30;;;;;;4997445;28;20446;-60
2022/04/04 10:09:08;;;;;;;8.00;6.23;;;11.50;90.50;;;;;;4997352;28;20533;-62
2022/04/04 10:11:35;;;;;;;13.13;6.83;;;11.90;90.10;;;;;;4997027;28;20557;-60
2022/04/04 10:14:02;;;;;;;10.23;6.50;;;12.10;87.20;;;;;;4997341;28;20781;-59
2022/04/04 10:16:30;;;;;;;8.87;5.17;;;12.20;86.00;;;;;;4996849;28;20962;-60
2022/04/04 10:18:57;;;;;;;7.47;5.80;;;12.10;84.80;;;;;;4997156;28;20473;-60
2022/04/04 10:21:26;;;;;;;7.80;6.30;;;12.00;83.80;;;;;;4997351;28;20958;-62
2022/04/04 10:23:55;;;;;;;9.47;5.50;;;12.10;84.10;;;;;;4999233;28;20458;-62
2022/04/04 10:26:28;;;;;;;16.67;6.13;;;12.20;81.20;;;;;;4999789;28;20477;-63
2022/04/04 10:29:09;;;;;;;11.90;5.90;;;11.80;80.90;;;;;;5000069;28;20481;-63
2022/04/04 10:31:43;;;;;;;8.17;5.80;;;11.40;81.80;;;;;;4999190;28;20458;-59
2022/04/04 10:34:13;;;;;;;16.20;7.70;;;11.30;82.60;;;;;;4999892;28;20539;-62
2022/04/04 10:36:54;;;;;;;9.03;6.00;;;11.00;83.00;;;;;;5000170;28;20460;-62
2022/04/04 10:39:36;;;;;;;12.60;6.43;;;10.40;83.90;;;;;;4999885;28;20445;-61
2022/04/04 10:42:28;;;;;;;7.30;4.70;;;9.90;87.20;;;;;;5001248;28;20565;-59
2022/04/04 10:45:03;;;;;;;9.80;6.47;;;9.70;88.50;;;;;;5000670;28;20435;-60
2022/04/04 10:47:30;;;;;;;11.23;6.93;;;9.60;88.80;;;;;;5000717;28;20470;-62
2022/04/04 10:49:58;;;;;;;8.00;4.23;;;9.60;88.90;;;;;;5001434;28;20453;-58
2022/04/04 10:52:45;;;;;;;8.93;5.13;;;9.60;88.90;;;;;;5002131;28;20474;-59
2022/04/04 10:55:49;;;;;;;8.63;5.63;;;9.50;89.40;;;;;;5001571;28;20426;-62
2022/04/04 10:58:25;;;;;;;5.93;5.33;;;9.50;90.00;;;;;;4999944;28;20489;-58
2022/04/04 11:00:58;;;;;;;14.87;6.83;;;9.50;89.70;;;;;;5000223;28;20957;-59
2022/04/04 11:03:29;;;;;;;10.13;4.90;;;9.50;89.40;;;;;;5000615;28;20533;-60
2022/04/04 11:09:00;;;;;;;12.60;5.50;;;9.40;88.70;;;;;;4999666;28;20504;-59
2022/04/04 11:11:45;;;;;;;10.17;6.07;;;9.60;89.20;;;;;;4999454;28;20457;-57
2022/04/04 11:14:13;;;;;;;10.13;6.07;;;9.30;89.50;;;;;;4999592;28;20450;-59
2022/04/04 11:17:33;;;;;;;4.77;4.10;;;9.30;89.80;;;;;;4999644;28;20485;-53
2022/04/04 11:20:04;;;;;;;6.63;4.73;;;9.20;88.30;;;;;;4999614;28;20456;-59
2022/04/04 11:22:34;;;;;;;7.60;4.80;;;9.20;88.00;;;;;;4999928;28;20466;-61
2022/04/04 11:25:04;;;;;;;10.63;5.40;;;9.10;88.20;;;;;;5000420;28;20514;-60
2022/04/04 11:27:33;;;;;;;9.87;5.00;;;9.00;88.10;;;;;;5006703;28;20478;-63
2022/04/04 11:30:02;;;;;;;6.77;4.90;;;8.90;88.00;;;;;;5006188;28;20456;-59
2022/04/04 11:32:31;;;;;;;10.90;6.60;;;8.80;88.10;;;;;;5005815;28;20523;-61
2022/04/04 11:35:01;;;;;;;9.83;4.53;;;8.80;88.80;;;;;;5007237;28;20481;-61
2022/04/04 11:37:29;;;;;;;6.13;4.37;;;8.70;88.30;;;;;;5006790;28;20442;-60
2022/04/04 11:40:03;;;;;;;10.87;5.03;;;8.70;88.20;;;;;;5006123;28;20430;-61
2022/04/04 11:42:31;;;;;;;4.53;3.57;;;8.70;87.80;;;;;;5006302;28;20470;-59
2022/04/04 11:44:59;;;;;;;4.43;3.60;;;8.70;88.80;;;;;;5006578;28;20500;-58
2022/04/04 11:47:28;;;;;;;6.10;3.57;;;8.70;88.20;;;;;;5005994;28;20536;-59
2022/04/04 11:49:58;;;;;;;7.27;4.27;;;8.70;88.60;;;;;;5004986;28;20474;-56
2022/04/04 11:52:26;;;;;;;12.40;3.43;;;8.80;88.60;;;;;;5004510;28;20689;-63
2022/04/04 11:54:53;;;;;;;23.53;5.27;;;8.80;88.90;;;;;;5004520;28;20854;-58
2022/04/04 11:57:21;;;;;;;7.83;4.10;;;9.00;90.10;;;;;;5004561;28;20460;-62
2022/04/04 11:59:49;;;;;;;6.43;4.30;;;9.00;89.90;;;;;;5004140;28;20445;-62
2022/04/04 12:02:23;;;;;;;5.10;3.30;;;9.00;90.90;;;;;;5004945;28;20525;-55
2022/04/04 12:04:52;;;;;;;5.10;2.77;;;9.00;90.00;;;;;;5005317;28;20497;-62
2022/04/04 12:07:19;;;;;;;5.20;2.37;;;8.90;90.00;;;;;;5006003;28;20442;-62
2022/04/04 12:09:51;;;;;;;7.37;3.60;;;8.90;90.20;;;;;;5004477;28;20434;-63
2022/04/04 12:12:18;;;;;;;5.13;2.33;;;9.00;90.20;;;;;;5004322;28;20511;-58
2022/04/04 12:14:48;;;;;;;3.97;2.40;;;9.80;90.40;;;;;;5005253;28;20497;-62
2022/04/04 12:17:15;;;;;;;4.77;2.60;;;8.70;90.10;;;;;;5006160;28;20464;-62
2022/04/04 12:19:43;;;;;;;8.70;2.97;;;8.60;91.30;;;;;;5006061;28;20481;-59
2022/04/04 12:24:56;;;;;;;10.20;2.50;;;8.30;92.20;;;;;;5006152;28;20414;-57
2022/04/04 12:27:24;;;;;;;8.60;3.13;;;8.20;93.00;;;;;;5008252;28;20433;-63
2022/04/04 12:29:59;;;;;;;5.27;4.30;;;8.10;93.20;;;;;;5008111;28;20442;-56
2022/04/04 12:32:26;;;;;;;3.50;1.70;;;8.00;93.10;;;;;;5007390;28;20889;-60
2022/04/04 12:34:58;;;;;;;3.17;2.73;;;7.90;93.20;;;;;;5006327;28;20448;-62
2022/04/04 12:37:37;;;;;;;13.00;3.23;;;8.00;93.50;;;;;;5006850;28;20488;-58
2022/04/04 12:40:18;;;;;;;12.90;3.30;;;7.80;95.10;;;;;;5008588;28;20446;-57
2022/04/04 12:42:47;;;;;;;4.57;3.27;;;7.70;97.70;;;;;;5010078;28;20497;-59
2022/04/04 12:45:15;;;;;;;9.20;5.67;;;7.40;99.10;;;;;;5010214;28;20446;-58
2022/04/04 12:47:56;;;;;;;7.10;3.57;;;7.20;99.90;;;;;;5009518;28;20534;-57
2022/04/04 12:50:24;;;;;;;5.30;3.80;;;7.00;99.90;;;;;;5009799;28;20450;-59
2022/04/04 12:53:01;;;;;;;7.93;4.70;;;6.90;99.90;;;;;;5008714;28;20538;-60
2022/04/04 12:55:29;;;;;;;7.23;4.00;;;6.90;99.90;;;;;;5009525;28;20477;-61
2022/04/04 12:57:56;;;;;;;6.10;3.43;;;6.80;99.90;;;;;;5012816;28;20449;-62
2022/04/04 13:00:27;;;;;;;5.23;3.77;;;6.60;99.90;;;;;;5014506;28;20466;-57
2022/04/04 13:02:55;;;;;;;5.87;5.17;;;6.50;99.90;;;;;;5015169;28;20489;-58
2022/04/04 13:05:26;;;;;;;8.57;3.63;;;6.30;99.90;;;;;;5016431;28;20449;-57
2022/04/04 13:07:55;;;;;;;9.07;5.00;;;6.00;99.90;;;;;;5026604;23;20503;-58
2022/04/04 13:10:26;;;;;;;7.33;4.60;;;5.80;99.90;;;;;;5012140;28;20549;-56
2022/04/04 13:13:08;;;;;;;9.23;4.70;;;5.70;99.90;;;;;;5011914;28;20962;-57
2022/04/04 13:15:38;;;;;;;7.90;4.60;;;5.50;99.90;;;;;;5011105;28;20442;-59
2022/04/04 13:18:06;;;;;;;7.33;4.67;;;5.40;99.90;;;;;;5010737;28;20500;-58
2022/04/04 13:20:33;;;;;;;6.60;4.50;;;5.20;99.90;;;;;;5014055;28;20551;-52
2022/04/04 13:23:00;;;;;;;8.10;5.70;;;5.00;99.90;;;;;;5014093;28;20551;-60
2022/04/04 13:25:30;;;;;;;10.00;4.80;;;4.90;99.90;;;;;;5014185;28;20518;-60
2022/04/04 13:27:57;;;;;;;8.80;5.83;;;4.80;99.90;;;;;;5013805;28;20481;-51
2022/04/04 13:30:24;;;;;;;10.33;6.40;;;4.70;99.90;;;;;;5014762;28;20453;-58
2022/04/04 13:32:51;;;;;;;7.73;5.30;;;4.70;99.90;;;;;;5014029;28;20438;-55
2022/04/04 13:35:18;;;;;;;12.60;5.50;;;4.60;99.90;;;;;;5013953;28;20478;-58
2022/04/04 13:37:45;;;;;;;13.73;6.00;;;4.60;99.90;;;;;;5013146;28;20473;-58
2022/04/04 13:40:13;;;;;;;8.70;5.93;;;4.50;99.90;;;;;;5015573;28;20460;-57
2022/04/04 13:42:41;;;;;;;11.03;7.40;;;4.40;99.90;;;;;;5015607;28;20482;-59
2022/04/04 13:45:08;;;;;;;8.23;6.47;;;4.30;99.90;;;;;;5015269;28;20484;-49
2022/04/04 13:47:36;;;;;;;15.47;6.90;;;4.30;99.90;;;;;;5015029;28;20493;-60
2022/04/04 13:50:03;;;;;;;12.23;6.87;;;4.20;99.90;;;;;;5015810;28;20458;-56
2022/04/04 13:52:30;;;;;;;10.53;7.90;;;4.20;99.90;;;;;;5015328;28;20450;-55
2022/04/04 13:54:57;;;;;;;10.00;6.27;;;4.10;99.90;;;;;;5014566;28;20430;-48
2022/04/04 13:57:24;;;;;;;11.43;8.40;;;4.20;99.90;;;;;;5013919;28;20477;-55
2022/04/04 13:59:56;;;;;;;8.60;5.20;;;4.20;99.90;;;;;;5015969;28;20469;-55
2022/04/04 14:02:23;;;;;;;8.83;6.83;;;4.20;99.90;;;;;;5017086;28;20466;-53
2022/04/04 14:04:50;;;;;;;16.40;6.93;;;4.10;99.90;;;;;;5017708;28;20450;-59
2022/04/04 14:07:17;;;;;;;13.83;6.40;;;4.10;99.90;;;;;;5016845;28;20442;-56
2022/04/04 14:09:44;;;;;;;7.03;4.53;;;4.10;99.90;;;;;;5017008;28;20546;-54
2022/04/04 14:12:12;;;;;;;12.50;8.83;;;4.10;99.90;;;;;;5015930;28;20446;-48
2022/04/04 14:14:38;;;;;;;18.52;11.95;;;4.10;99.90;;;;;;4999350;28;20437;-65
2022/04/04 14:17:07;;;;;;;8.07;6.70;;;4.50;99.90;;;;;;4998397;28;20231;-63
2022/04/04 14:19:34;;;;;;;9.30;6.47;;;5.00;99.90;;;;;;4996891;28;20907;-58
2022/04/04 14:22:01;;;;;;;11.30;6.93;;;5.40;99.90;;;;;;4996698;28;20602;-60
2022/04/04 14:24:28;;;;;;;9.23;6.20;;;5.50;99.90;;;;;;4996810;28;20462;-59
2022/04/04 14:26:55;;;;;;;9.13;6.83;;;5.20;99.90;;;;;;4997596;28;20529;-63
2022/04/04 14:29:22;;;;;;;8.30;6.53;;;4.80;99.90;;;;;;4996649;28;20473;-57
2022/04/04 14:31:50;;;;;;;8.43;6.23;;;4.60;99.90;;;;;;4996613;28;20566;-61
2022/04/04 14:34:19;;;;;;;9.13;6.97;;;4.50;99.90;;;;;;4995589;28;20481;-59
2022/04/04 14:36:48;;;;;;;8.77;6.53;;;4.30;99.90;;;;;;4996280;28;20465;-61
2022/04/04 14:39:15;;;;;;;11.57;7.87;;;4.20;99.90;;;;;;4997714;28;20454;-61
2022/04/04 14:41:42;;;;;;;9.27;6.03;;;4.10;99.90;;;;;;4996389;28;20482;-63
2022/04/04 14:44:09;;;;;;;12.83;7.03;;;4.00;99.90;;;;;;4996461;28;20466;-63
2022/04/04 14:46:37;;;;;;;10.50;7.67;;;3.90;99.90;;;;;;4996508;28;20794;-63
2022/04/04 14:49:04;;;;;;;9.77;6.70;;;3.90;99.90;;;;;;4997479;28;20536;-67
2022/04/04 14:51:32;;;;;;;12.00;7.73;;;3.80;99.90;;;;;;4996176;28;20606;-63
2022/04/04 14:54:00;;;;;;;10.03;6.67;;;3.80;99.90;;;;;;4996012;28;20821;-64
2022/04/04 14:56:27;;;;;;;13.70;9.07;;;3.70;99.90;;;;;;4997567;28;20458;-64
2022/04/04 14:58:54;;;;;;;9.00;5.87;;;3.70;99.90;;;;;;4996620;28;20465;-66
2022/04/04 15:01:21;;;;;;;11.03;6.70;;;3.70;99.90;;;;;;4996539;28;20544;-60
2022/04/04 15:03:48;;;;;;;8.50;5.83;;;3.60;99.90;;;;;;4996019;28;20512;-60
2022/04/04 15:06:15;;;;;;;12.20;7.60;;;3.70;99.90;;;;;;4996050;28;20450;-59
2022/04/04 15:08:43;;;;;;;16.47;8.03;;;3.60;99.90;;;;;;4995590;28;20493;-62
2022/04/04 15:11:11;;;;;;;9.20;7.47;;;3.60;99.90;;;;;;4996836;28;20765;-57
2022/04/04 15:13:48;;;;;;;17.77;9.13;;;3.60;99.90;;;;;;5018489;28;20493;-36
2022/04/04 15:16:19;;;;;;;15.37;8.27;;;3.60;99.90;;;;;;5019296;28;20460;-36
2022/04/04 16:13:10;;;;;;;13.60;8.80;;;3.70;99.90;;;;;;5056030;23;20456;-65